sensor_id;sensor_type;location;lat;lon;timestamp;temperature;humidity
79187;SHT31;68762;51.980;5.646;2024-03-22T00:01:04;13.5;70.9
79187;SHT31;68762;51.980;5.646;2024-03-22T00:03:32;13.5;70.9
79187;SHT31;68762;51.980;5.646;2024-03-22T00:06:01;13.5;71.0
79187;SHT31;68762;51.980;5.646;2024-03-22T00:08:29;13.5;71.1
79187;SHT31;68762;51.980;5.646;2024-03-22T00:10:58;13.5;71.2
79187;SHT31;68762;51.980;5.646;2024-03-22T00:13:28;13.5;71.3
79187;SHT31;68762;51.980;5.646;2024-03-22T00:15:56;13.5;71.4
79187;SHT31;68762;51.980;5.646;2024-03-22T00:18:25;13.6;71.4
79187;SHT31;68762;51.980;5.646;2024-03-22T00:20:53;13.6;71.4
79187;SHT31;68762;51.980;5.646;2024-03-22T00:23:22;13.6;71.5
79187;SHT31;68762;51.980;5.646;2024-03-22T00:25:50;13.6;71.6
79187;SHT31;68762;51.980;5.646;2024-03-22T00:28:19;13.6;71.7
79187;SHT31;68762;51.980;5.646;2024-03-22T00:30:47;13.6;71.8
79187;SHT31;68762;51.980;5.646;2024-03-22T00:33:16;13.6;71.9
79187;SHT31;68762;51.980;5.646;2024-03-22T00:35:44;13.6;72.0
79187;SHT31;68762;51.980;5.646;2024-03-22T00:38:13;13.7;72.1
79187;SHT31;68762;51.980;5.646;2024-03-22T00:40:42;13.7;72.1
79187;SHT31;68762;51.980;5.646;2024-03-22T00:43:10;13.7;72.1
79187;SHT31;68762;51.980;5.646;2024-03-22T00:45:39;13.7;72.2
79187;SHT31;68762;51.980;5.646;2024-03-22T00:48:08;13.7;72.2
79187;SHT31;68762;51.980;5.646;2024-03-22T00:50:37;13.7;72.3
79187;SHT31;68762;51.980;5.646;2024-03-22T00:53:06;13.7;72.3
79187;SHT31;68762;51.980;5.646;2024-03-22T00:55:36;13.7;72.3
79187;SHT31;68762;51.980;5.646;2024-03-22T00:58:04;13.7;72.3
79187;SHT31;68762;51.980;5.646;2024-03-22T01:00:35;13.8;72.3
79187;SHT31;68762;51.980;5.646;2024-03-22T01:03:04;13.8;72.4
79187;SHT31;68762;51.980;5.646;2024-03-22T01:05:34;13.8;72.3
79187;SHT31;68762;51.980;5.646;2024-03-22T01:08:03;13.8;72.2
79187;SHT31;68762;51.980;5.646;2024-03-22T01:10:32;13.8;72.2
79187;SHT31;68762;51.980;5.646;2024-03-22T01:13:01;13.8;72.1
79187;SHT31;68762;51.980;5.646;2024-03-22T01:15:31;13.8;72.1
79187;SHT31;68762;51.980;5.646;2024-03-22T01:18:00;13.8;72.1
79187;SHT31;68762;51.980;5.646;2024-03-22T01:20:28;13.8;72.1
79187;SHT31;68762;51.980;5.646;2024-03-22T01:22:59;13.8;72.1
79187;SHT31;68762;51.980;5.646;2024-03-22T01:25:28;13.8;72.2
79187;SHT31;68762;51.980;5.646;2024-03-22T01:27:57;13.8;72.1
79187;SHT31;68762;51.980;5.646;2024-03-22T01:30:25;13.8;72.1
79187;SHT31;68762;51.980;5.646;2024-03-22T01:32:56;13.8;72.1
79187;SHT31;68762;51.980;5.646;2024-03-22T01:35:24;13.8;72.1
79187;SHT31;68762;51.980;5.646;2024-03-22T01:37:53;13.7;72.2
79187;SHT31;68762;51.980;5.646;2024-03-22T01:40:21;13.7;72.2
79187;SHT31;68762;51.980;5.646;2024-03-22T01:42:52;13.7;72.2
79187;SHT31;68762;51.980;5.646;2024-03-22T01:45:22;13.7;72.2
79187;SHT31;68762;51.980;5.646;2024-03-22T01:47:51;13.7;72.2
79187;SHT31;68762;51.980;5.646;2024-03-22T01:50:20;13.7;72.1
79187;SHT31;68762;51.980;5.646;2024-03-22T01:52:51;13.7;72.0
79187;SHT31;68762;51.980;5.646;2024-03-22T01:55:20;13.7;72.0
79187;SHT31;68762;51.980;5.646;2024-03-22T01:57:49;13.7;72.0
79187;SHT31;68762;51.980;5.646;2024-03-22T02:00:20;13.7;72.1
79187;SHT31;68762;51.980;5.646;2024-03-22T02:02:48;13.7;72.1
79187;SHT31;68762;51.980;5.646;2024-03-22T02:05:18;13.7;72.1
79187;SHT31;68762;51.980;5.646;2024-03-22T02:07:48;13.7;72.1
79187;SHT31;68762;51.980;5.646;2024-03-22T02:10:19;13.7;72.1
79187;SHT31;68762;51.980;5.646;2024-03-22T02:12:49;13.8;72.2
79187;SHT31;68762;51.980;5.646;2024-03-22T02:15:18;13.8;72.2
79187;SHT31;68762;51.980;5.646;2024-03-22T02:17:47;13.8;72.2
79187;SHT31;68762;51.980;5.646;2024-03-22T02:20:17;13.8;72.3
79187;SHT31;68762;51.980;5.646;2024-03-22T02:22:46;13.8;72.2
79187;SHT31;68762;51.980;5.646;2024-03-22T02:25:14;13.8;72.2
79187;SHT31;68762;51.980;5.646;2024-03-22T02:27:43;13.8;72.1
79187;SHT31;68762;51.980;5.646;2024-03-22T02:30:11;13.8;72.0
79187;SHT31;68762;51.980;5.646;2024-03-22T02:32:42;13.8;72.0
79187;SHT31;68762;51.980;5.646;2024-03-22T02:35:11;13.8;72.0
79187;SHT31;68762;51.980;5.646;2024-03-22T02:37:39;13.8;71.9
79187;SHT31;68762;51.980;5.646;2024-03-22T02:40:08;13.8;71.9
79187;SHT31;68762;51.980;5.646;2024-03-22T02:42:37;13.8;71.8
79187;SHT31;68762;51.980;5.646;2024-03-22T02:45:06;13.8;71.8
79187;SHT31;68762;51.980;5.646;2024-03-22T02:47:35;13.9;71.8
79187;SHT31;68762;51.980;5.646;2024-03-22T02:50:06;13.9;71.7
79187;SHT31;68762;51.980;5.646;2024-03-22T02:52:35;13.9;71.6
79187;SHT31;68762;51.980;5.646;2024-03-22T02:55:04;13.9;71.5
79187;SHT31;68762;51.980;5.646;2024-03-22T02:57:34;13.9;71.4
79187;SHT31;68762;51.980;5.646;2024-03-22T03:00:03;13.9;71.3
79187;SHT31;68762;51.980;5.646;2024-03-22T03:02:32;13.9;71.3
79187;SHT31;68762;51.980;5.646;2024-03-22T03:05:01;13.9;71.2
79187;SHT31;68762;51.980;5.646;2024-03-22T03:07:30;13.9;71.1
79187;SHT31;68762;51.980;5.646;2024-03-22T03:09:59;13.9;71.1
79187;SHT31;68762;51.980;5.646;2024-03-22T03:12:27;13.9;71.0
79187;SHT31;68762;51.980;5.646;2024-03-22T03:14:56;13.9;70.9
79187;SHT31;68762;51.980;5.646;2024-03-22T03:17:25;13.9;70.9
79187;SHT31;68762;51.980;5.646;2024-03-22T03:19:53;13.8;70.8
79187;SHT31;68762;51.980;5.646;2024-03-22T03:22:22;13.8;70.7
79187;SHT31;68762;51.980;5.646;2024-03-22T03:24:50;13.8;70.8
79187;SHT31;68762;51.980;5.646;2024-03-22T03:27:19;13.8;70.8
79187;SHT31;68762;51.980;5.646;2024-03-22T03:29:49;13.8;70.8
79187;SHT31;68762;51.980;5.646;2024-03-22T03:32:19;13.8;70.8
79187;SHT31;68762;51.980;5.646;2024-03-22T03:34:47;13.8;70.8
79187;SHT31;68762;51.980;5.646;2024-03-22T03:37:16;13.8;70.7
79187;SHT31;68762;51.980;5.646;2024-03-22T03:39:45;13.8;70.7
79187;SHT31;68762;51.980;5.646;2024-03-22T03:42:13;13.8;70.5
79187;SHT31;68762;51.980;5.646;2024-03-22T03:44:42;13.8;70.5
79187;SHT31;68762;51.980;5.646;2024-03-22T03:47:10;13.8;70.5
79187;SHT31;68762;51.980;5.646;2024-03-22T03:49:39;13.8;70.5
79187;SHT31;68762;51.980;5.646;2024-03-22T03:52:07;13.8;70.6
79187;SHT31;68762;51.980;5.646;2024-03-22T03:54:36;13.8;70.6
79187;SHT31;68762;51.980;5.646;2024-03-22T03:57:05;13.8;70.6
79187;SHT31;68762;51.980;5.646;2024-03-22T03:59:34;13.8;70.4
79187;SHT31;68762;51.980;5.646;2024-03-22T04:02:05;13.8;70.5
79187;SHT31;68762;51.980;5.646;2024-03-22T04:04:33;13.8;70.6
79187;SHT31;68762;51.980;5.646;2024-03-22T04:07:02;13.8;70.7
79187;SHT31;68762;51.980;5.646;2024-03-22T04:09:30;13.8;70.7
79187;SHT31;68762;51.980;5.646;2024-03-22T04:12:01;13.8;70.5
79187;SHT31;68762;51.980;5.646;2024-03-22T04:14:30;13.8;70.2
79187;SHT31;68762;51.980;5.646;2024-03-22T04:16:58;13.8;70.0
79187;SHT31;68762;51.980;5.646;2024-03-22T04:19:29;13.8;70.1
79187;SHT31;68762;51.980;5.646;2024-03-22T04:21:57;13.8;69.9
79187;SHT31;68762;51.980;5.646;2024-03-22T04:24:27;13.8;69.8
79187;SHT31;68762;51.980;5.646;2024-03-22T04:26:56;13.8;69.6
79187;SHT31;68762;51.980;5.646;2024-03-22T04:29:24;13.8;69.6
79187;SHT31;68762;51.980;5.646;2024-03-22T04:31:53;13.7;69.2
79187;SHT31;68762;51.980;5.646;2024-03-22T04:34:21;13.7;69.2
79187;SHT31;68762;51.980;5.646;2024-03-22T04:36:50;13.7;69.2
79187;SHT31;68762;51.980;5.646;2024-03-22T04:39:21;13.7;68.9
79187;SHT31;68762;51.980;5.646;2024-03-22T04:41:50;13.7;68.3
79187;SHT31;68762;51.980;5.646;2024-03-22T04:44:21;13.7;68.1
79187;SHT31;68762;51.980;5.646;2024-03-22T04:46:51;13.6;67.9
79187;SHT31;68762;51.980;5.646;2024-03-22T04:49:20;13.6;67.8
79187;SHT31;68762;51.980;5.646;2024-03-22T04:51:49;13.6;67.9
79187;SHT31;68762;51.980;5.646;2024-03-22T04:54:17;13.6;68.0
79187;SHT31;68762;51.980;5.646;2024-03-22T04:56:46;13.6;67.9
79187;SHT31;68762;51.980;5.646;2024-03-22T04:59:14;13.6;67.9
79187;SHT31;68762;51.980;5.646;2024-03-22T05:01:43;13.5;67.9
79187;SHT31;68762;51.980;5.646;2024-03-22T05:04:12;13.5;67.5
79187;SHT31;68762;51.980;5.646;2024-03-22T05:06:41;13.5;67.5
79187;SHT31;68762;51.980;5.646;2024-03-22T05:09:10;13.5;67.6
79187;SHT31;68762;51.980;5.646;2024-03-22T05:11:40;13.5;67.4
79187;SHT31;68762;51.980;5.646;2024-03-22T05:14:11;13.4;67.5
79187;SHT31;68762;51.980;5.646;2024-03-22T05:16:39;13.4;67.5
79187;SHT31;68762;51.980;5.646;2024-03-22T05:19:10;13.4;67.6
79187;SHT31;68762;51.980;5.646;2024-03-22T05:21:38;13.4;67.7
79187;SHT31;68762;51.980;5.646;2024-03-22T05:24:07;13.4;67.8
79187;SHT31;68762;51.980;5.646;2024-03-22T05:26:36;13.4;67.6
79187;SHT31;68762;51.980;5.646;2024-03-22T05:29:04;13.4;67.6
79187;SHT31;68762;51.980;5.646;2024-03-22T05:31:47;13.3;67.7
79187;SHT31;68762;51.980;5.646;2024-03-22T05:34:18;13.3;67.9
79187;SHT31;68762;51.980;5.646;2024-03-22T05:36:47;13.3;68.1
79187;SHT31;68762;51.980;5.646;2024-03-22T05:39:15;13.3;68.1
79187;SHT31;68762;51.980;5.646;2024-03-22T05:41:44;13.3;68.3
79187;SHT31;68762;51.980;5.646;2024-03-22T05:44:12;13.3;68.2
79187;SHT31;68762;51.980;5.646;2024-03-22T05:46:41;13.3;68.2
79187;SHT31;68762;51.980;5.646;2024-03-22T05:49:09;13.3;68.2
79187;SHT31;68762;51.980;5.646;2024-03-22T05:51:38;13.3;68.2
79187;SHT31;68762;51.980;5.646;2024-03-22T05:54:09;13.3;68.1
79187;SHT31;68762;51.980;5.646;2024-03-22T05:56:37;13.3;67.8
79187;SHT31;68762;51.980;5.646;2024-03-22T05:59:06;13.3;67.9
79187;SHT31;68762;51.980;5.646;2024-03-22T06:01:34;13.3;68.0
79187;SHT31;68762;51.980;5.646;2024-03-22T06:04:05;13.3;67.6
79187;SHT31;68762;51.980;5.646;2024-03-22T06:06:34;13.3;67.6
79187;SHT31;68762;51.980;5.646;2024-03-22T06:09:05;13.3;67.6
79187;SHT31;68762;51.980;5.646;2024-03-22T06:11:35;13.3;67.4
79187;SHT31;68762;51.980;5.646;2024-03-22T06:14:06;13.3;67.5
79187;SHT31;68762;51.980;5.646;2024-03-22T06:16:34;13.3;67.9
79187;SHT31;68762;51.980;5.646;2024-03-22T06:19:03;13.3;67.8
79187;SHT31;68762;51.980;5.646;2024-03-22T06:21:31;13.3;67.6
79187;SHT31;68762;51.980;5.646;2024-03-22T06:24:00;13.3;67.7
79187;SHT31;68762;51.980;5.646;2024-03-22T06:26:29;13.3;67.5
79187;SHT31;68762;51.980;5.646;2024-03-22T06:28:58;13.3;67.5
79187;SHT31;68762;51.980;5.646;2024-03-22T06:31:26;13.3;67.6
79187;SHT31;68762;51.980;5.646;2024-03-22T06:33:55;13.3;67.3
79187;SHT31;68762;51.980;5.646;2024-03-22T06:36:31;13.3;67.3
79187;SHT31;68762;51.980;5.646;2024-03-22T06:39:00;13.3;67.3
79187;SHT31;68762;51.980;5.646;2024-03-22T06:41:31;13.3;67.2
79187;SHT31;68762;51.980;5.646;2024-03-22T06:44:00;13.3;67.3
79187;SHT31;68762;51.980;5.646;2024-03-22T06:46:28;13.3;67.2
79187;SHT31;68762;51.980;5.646;2024-03-22T06:48:57;13.3;67.2
79187;SHT31;68762;51.980;5.646;2024-03-22T06:51:26;13.3;67.1
79187;SHT31;68762;51.980;5.646;2024-03-22T06:53:54;13.3;67.4
79187;SHT31;68762;51.980;5.646;2024-03-22T06:56:23;13.3;67.2
79187;SHT31;68762;51.980;5.646;2024-03-22T06:58:52;13.3;67.2
79187;SHT31;68762;51.980;5.646;2024-03-22T07:01:22;13.4;67.3
79187;SHT31;68762;51.980;5.646;2024-03-22T07:03:51;13.4;67.1
79187;SHT31;68762;51.980;5.646;2024-03-22T07:06:19;13.4;66.9
79187;SHT31;68762;51.980;5.646;2024-03-22T07:08:48;13.4;67.2
79187;SHT31;68762;51.980;5.646;2024-03-22T07:11:17;13.4;67.2
79187;SHT31;68762;51.980;5.646;2024-03-22T07:13:45;13.4;67.2
79187;SHT31;68762;51.980;5.646;2024-03-22T07:16:14;13.4;67.3
79187;SHT31;68762;51.980;5.646;2024-03-22T07:18:42;13.4;67.6
79187;SHT31;68762;51.980;5.646;2024-03-22T07:21:11;13.4;67.6
79187;SHT31;68762;51.980;5.646;2024-03-22T07:23:39;13.4;67.6
79187;SHT31;68762;51.980;5.646;2024-03-22T07:26:08;13.5;67.1
79187;SHT31;68762;51.980;5.646;2024-03-22T07:28:36;13.5;67.1
79187;SHT31;68762;51.980;5.646;2024-03-22T07:31:05;13.5;66.8
79187;SHT31;68762;51.980;5.646;2024-03-22T07:33:34;13.5;66.8
79187;SHT31;68762;51.980;5.646;2024-03-22T07:36:03;13.5;67.0
79187;SHT31;68762;51.980;5.646;2024-03-22T07:38:32;13.6;66.6
79187;SHT31;68762;51.980;5.646;2024-03-22T07:41:01;13.6;66.4
79187;SHT31;68762;51.980;5.646;2024-03-22T07:43:30;13.6;66.8
79187;SHT31;68762;51.980;5.646;2024-03-22T07:45:59;13.6;66.4
79187;SHT31;68762;51.980;5.646;2024-03-22T07:48:28;13.6;66.7
79187;SHT31;68762;51.980;5.646;2024-03-22T07:51:00;13.6;66.3
79187;SHT31;68762;51.980;5.646;2024-03-22T07:53:29;13.6;66.3
79187;SHT31;68762;51.980;5.646;2024-03-22T07:55:58;13.6;66.6
79187;SHT31;68762;51.980;5.646;2024-03-22T07:58:28;13.6;66.6
79187;SHT31;68762;51.980;5.646;2024-03-22T08:00:57;13.6;66.8
79187;SHT31;68762;51.980;5.646;2024-03-22T08:03:25;13.6;66.8
79187;SHT31;68762;51.980;5.646;2024-03-22T08:05:54;13.6;66.3
79187;SHT31;68762;51.980;5.646;2024-03-22T08:08:23;13.6;66.4
79187;SHT31;68762;51.980;5.646;2024-03-22T08:10:52;13.6;65.9
79187;SHT31;68762;51.980;5.646;2024-03-22T08:13:20;13.6;66.5
79187;SHT31;68762;51.980;5.646;2024-03-22T08:15:49;13.6;66.5
79187;SHT31;68762;51.980;5.646;2024-03-22T08:18:17;13.6;66.5
79187;SHT31;68762;51.980;5.646;2024-03-22T08:20:46;13.6;66.5
79187;SHT31;68762;51.980;5.646;2024-03-22T08:23:14;13.7;66.4
79187;SHT31;68762;51.980;5.646;2024-03-22T08:25:46;13.7;66.1
79187;SHT31;68762;51.980;5.646;2024-03-22T08:28:14;13.7;66.7
79187;SHT31;68762;51.980;5.646;2024-03-22T08:30:43;13.7;66.6
79187;SHT31;68762;51.980;5.646;2024-03-22T08:33:12;13.7;66.5
79187;SHT31;68762;51.980;5.646;2024-03-22T08:35:41;13.7;66.6
79187;SHT31;68762;51.980;5.646;2024-03-22T08:38:09;13.7;66.5
79187;SHT31;68762;51.980;5.646;2024-03-22T08:40:41;13.7;66.5
79187;SHT31;68762;51.980;5.646;2024-03-22T08:43:12;13.7;67.2
79187;SHT31;68762;51.980;5.646;2024-03-22T08:45:41;13.6;67.7
79187;SHT31;68762;51.980;5.646;2024-03-22T08:48:10;13.6;68.4
79187;SHT31;68762;51.980;5.646;2024-03-22T08:50:39;13.6;68.3
79187;SHT31;68762;51.980;5.646;2024-03-22T08:53:10;13.5;68.6
79187;SHT31;68762;51.980;5.646;2024-03-22T08:55:38;13.5;68.3
79187;SHT31;68762;51.980;5.646;2024-03-22T08:58:12;13.5;68.3
79187;SHT31;68762;51.980;5.646;2024-03-22T09:00:41;13.5;68.7
79187;SHT31;68762;51.980;5.646;2024-03-22T09:03:10;13.5;68.5
79187;SHT31;68762;51.980;5.646;2024-03-22T09:05:41;13.4;68.8
79187;SHT31;68762;51.980;5.646;2024-03-22T09:08:10;13.4;68.6
79187;SHT31;68762;51.980;5.646;2024-03-22T09:10:38;13.4;68.1
79187;SHT31;68762;51.980;5.646;2024-03-22T09:13:07;13.4;68.4
79187;SHT31;68762;51.980;5.646;2024-03-22T09:15:39;13.4;68.2
79187;SHT31;68762;51.980;5.646;2024-03-22T09:18:07;13.4;68.4
79187;SHT31;68762;51.980;5.646;2024-03-22T09:20:38;13.4;69.1
79187;SHT31;68762;51.980;5.646;2024-03-22T09:23:06;13.4;69.5
79187;SHT31;68762;51.980;5.646;2024-03-22T09:25:35;13.4;69.4
79187;SHT31;68762;51.980;5.646;2024-03-22T09:28:03;13.4;69.6
79187;SHT31;68762;51.980;5.646;2024-03-22T09:30:32;13.4;69.6
79187;SHT31;68762;51.980;5.646;2024-03-22T09:33:00;13.4;69.7
79187;SHT31;68762;51.980;5.646;2024-03-22T09:35:30;13.4;69.8
79187;SHT31;68762;51.980;5.646;2024-03-22T09:38:00;13.4;69.9
79187;SHT31;68762;51.980;5.646;2024-03-22T09:40:29;13.4;69.6
79187;SHT31;68762;51.980;5.646;2024-03-22T09:43:01;13.4;69.8
79187;SHT31;68762;51.980;5.646;2024-03-22T09:45:31;13.4;68.9
79187;SHT31;68762;51.980;5.646;2024-03-22T09:48:01;13.4;68.9
79187;SHT31;68762;51.980;5.646;2024-03-22T09:50:30;13.4;69.0
79187;SHT31;68762;51.980;5.646;2024-03-22T09:52:59;13.5;68.8
79187;SHT31;68762;51.980;5.646;2024-03-22T09:55:28;13.5;68.6
79187;SHT31;68762;51.980;5.646;2024-03-22T09:57:59;13.5;68.6
79187;SHT31;68762;51.980;5.646;2024-03-22T10:00:29;13.5;68.6
79187;SHT31;68762;51.980;5.646;2024-03-22T10:03:01;13.5;69.1
79187;SHT31;68762;51.980;5.646;2024-03-22T10:05:32;13.5;69.5
79187;SHT31;68762;51.980;5.646;2024-03-22T10:08:01;13.5;70.4
79187;SHT31;68762;51.980;5.646;2024-03-22T10:10:33;13.5;70.7
79187;SHT31;68762;51.980;5.646;2024-03-22T10:13:03;13.4;71.0
79187;SHT31;68762;51.980;5.646;2024-03-22T10:15:34;13.4;71.2
79187;SHT31;68762;51.980;5.646;2024-03-22T10:18:04;13.4;72.0
79187;SHT31;68762;51.980;5.646;2024-03-22T10:20:32;13.3;72.1
79187;SHT31;68762;51.980;5.646;2024-03-22T10:23:01;13.3;72.4
79187;SHT31;68762;51.980;5.646;2024-03-22T10:25:29;13.3;72.9
79187;SHT31;68762;51.980;5.646;2024-03-22T10:27:58;13.3;73.1
79187;SHT31;68762;51.980;5.646;2024-03-22T10:30:29;13.3;73.2
79187;SHT31;68762;51.980;5.646;2024-03-22T10:32:59;13.2;73.7
79187;SHT31;68762;51.980;5.646;2024-03-22T10:35:29;13.2;73.9
79187;SHT31;68762;51.980;5.646;2024-03-22T10:37:58;13.2;74.2
79187;SHT31;68762;51.980;5.646;2024-03-22T10:40:28;13.2;74.4
79187;SHT31;68762;51.980;5.646;2024-03-22T10:42:57;13.2;74.2
79187;SHT31;68762;51.980;5.646;2024-03-22T10:45:26;13.2;73.9
79187;SHT31;68762;51.980;5.646;2024-03-22T10:47:56;13.2;73.8
79187;SHT31;68762;51.980;5.646;2024-03-22T10:50:25;13.2;73.8
79187;SHT31;68762;51.980;5.646;2024-03-22T10:52:59;13.1;74.0
79187;SHT31;68762;51.980;5.646;2024-03-22T10:55:33;13.1;74.3
79187;SHT31;68762;51.980;5.646;2024-03-22T10:58:02;13.1;74.2
79187;SHT31;68762;51.980;5.646;2024-03-22T11:00:33;13.1;74.2
79187;SHT31;68762;51.980;5.646;2024-03-22T11:03:04;13.1;74.4
79187;SHT31;68762;51.980;5.646;2024-03-22T11:05:33;13.1;74.1
79187;SHT31;68762;51.980;5.646;2024-03-22T11:08:03;13.1;74.3
79187;SHT31;68762;51.980;5.646;2024-03-22T11:10:34;13.1;74.5
79187;SHT31;68762;51.980;5.646;2024-03-22T11:13:03;13.1;74.9
79187;SHT31;68762;51.980;5.646;2024-03-22T11:15:35;13.1;75.1
79187;SHT31;68762;51.980;5.646;2024-03-22T11:18:04;13.0;75.1
79187;SHT31;68762;51.980;5.646;2024-03-22T11:20:36;13.0;75.2
79187;SHT31;68762;51.980;5.646;2024-03-22T11:23:06;13.0;75.2
79187;SHT31;68762;51.980;5.646;2024-03-22T11:25:35;13.0;75.1
79187;SHT31;68762;51.980;5.646;2024-03-22T11:28:04;13.0;75.3
79187;SHT31;68762;51.980;5.646;2024-03-22T11:30:33;13.0;75.7
79187;SHT31;68762;51.980;5.646;2024-03-22T11:33:03;12.9;75.9
79187;SHT31;68762;51.980;5.646;2024-03-22T11:35:33;12.9;76.2
79187;SHT31;68762;51.980;5.646;2024-03-22T11:38:04;12.9;76.2
79187;SHT31;68762;51.980;5.646;2024-03-22T11:40:33;12.9;76.5
79187;SHT31;68762;51.980;5.646;2024-03-22T11:43:02;12.9;76.4
79187;SHT31;68762;51.980;5.646;2024-03-22T11:45:32;12.9;76.3
79187;SHT31;68762;51.980;5.646;2024-03-22T11:48:03;12.9;76.7
79187;SHT31;68762;51.980;5.646;2024-03-22T11:50:34;12.9;76.4
79187;SHT31;68762;51.980;5.646;2024-03-22T11:53:05;12.9;76.5
79187;SHT31;68762;51.980;5.646;2024-03-22T11:55:37;12.9;76.7
79187;SHT31;68762;51.980;5.646;2024-03-22T11:58:08;12.8;77.1
79187;SHT31;68762;51.980;5.646;2024-03-22T12:00:37;12.8;77.0
79187;SHT31;68762;51.980;5.646;2024-03-22T12:03:06;12.8;77.1
79187;SHT31;68762;51.980;5.646;2024-03-22T12:05:35;12.8;77.4
79187;SHT31;68762;51.980;5.646;2024-03-22T12:08:04;12.8;77.4
79187;SHT31;68762;51.980;5.646;2024-03-22T12:10:33;12.8;77.4
79187;SHT31;68762;51.980;5.646;2024-03-22T12:13:01;12.8;77.6
79187;SHT31;68762;51.980;5.646;2024-03-22T12:15:30;12.8;77.3
79187;SHT31;68762;51.980;5.646;2024-03-22T12:17:59;12.8;77.6
79187;SHT31;68762;51.980;5.646;2024-03-22T12:20:27;12.8;77.8
79187;SHT31;68762;51.980;5.646;2024-03-22T12:22:56;12.8;77.6
79187;SHT31;68762;51.980;5.646;2024-03-22T12:25:24;12.8;77.6
79187;SHT31;68762;51.980;5.646;2024-03-22T12:27:53;12.9;77.8
79187;SHT31;68762;51.980;5.646;2024-03-22T12:30:22;12.9;77.7
79187;SHT31;68762;51.980;5.646;2024-03-22T12:32:52;12.9;77.8
79187;SHT31;68762;51.980;5.646;2024-03-22T12:35:21;12.9;78.1
79187;SHT31;68762;51.980;5.646;2024-03-22T12:37:49;12.9;77.8
79187;SHT31;68762;51.980;5.646;2024-03-22T12:40:18;12.9;77.6
79187;SHT31;68762;51.980;5.646;2024-03-22T12:42:47;12.9;77.6
79187;SHT31;68762;51.980;5.646;2024-03-22T12:45:15;12.9;78.1
79187;SHT31;68762;51.980;5.646;2024-03-22T12:47:44;12.9;77.9
79187;SHT31;68762;51.980;5.646;2024-03-22T12:50:12;13.0;77.6
79187;SHT31;68762;51.980;5.646;2024-03-22T12:52:41;13.0;77.6
79187;SHT31;68762;51.980;5.646;2024-03-22T12:55:11;13.0;77.1
79187;SHT31;68762;51.980;5.646;2024-03-22T12:57:40;13.0;77.3
79187;SHT31;68762;51.980;5.646;2024-03-22T13:00:10;13.0;77.6
79187;SHT31;68762;51.980;5.646;2024-03-22T13:02:45;13.0;77.6
79187;SHT31;68762;51.980;5.646;2024-03-22T13:05:13;13.0;77.6
79187;SHT31;68762;51.980;5.646;2024-03-22T13:07:43;13.0;77.8
79187;SHT31;68762;51.980;5.646;2024-03-22T13:10:11;13.0;77.7
79187;SHT31;68762;51.980;5.646;2024-03-22T13:12:40;13.0;77.9
79187;SHT31;68762;51.980;5.646;2024-03-22T13:15:09;13.0;77.8
79187;SHT31;68762;51.980;5.646;2024-03-22T13:17:38;13.0;78.3
79187;SHT31;68762;51.980;5.646;2024-03-22T13:20:07;13.1;77.2
79187;SHT31;68762;51.980;5.646;2024-03-22T13:22:37;13.1;76.0
79187;SHT31;68762;51.980;5.646;2024-03-22T13:25:06;13.1;75.8
79187;SHT31;68762;51.980;5.646;2024-03-22T13:27:39;13.2;75.3
79187;SHT31;68762;51.980;5.646;2024-03-22T13:30:08;13.2;75.4
79187;SHT31;68762;51.980;5.646;2024-03-22T13:32:39;13.2;75.3
79187;SHT31;68762;51.980;5.646;2024-03-22T13:35:08;13.2;75.4
79187;SHT31;68762;51.980;5.646;2024-03-22T13:37:37;13.3;75.4
79187;SHT31;68762;51.980;5.646;2024-03-22T13:40:06;13.3;75.5
79187;SHT31;68762;51.980;5.646;2024-03-22T13:42:35;13.4;75.6
79187;SHT31;68762;51.980;5.646;2024-03-22T13:45:04;13.4;74.2
79187;SHT31;68762;51.980;5.646;2024-03-22T13:47:33;13.4;74.1
79187;SHT31;68762;51.980;5.646;2024-03-22T13:50:04;13.4;73.5
79187;SHT31;68762;51.980;5.646;2024-03-22T13:52:33;13.4;73.5
79187;SHT31;68762;51.980;5.646;2024-03-22T13:55:01;13.4;73.4
79187;SHT31;68762;51.980;5.646;2024-03-22T13:57:31;13.4;73.6
79187;SHT31;68762;51.980;5.646;2024-03-22T14:00:00;13.4;72.8
79187;SHT31;68762;51.980;5.646;2024-03-22T14:02:30;13.4;73.4
79187;SHT31;68762;51.980;5.646;2024-03-22T14:05:01;13.4;72.4
79187;SHT31;68762;51.980;5.646;2024-03-22T14:07:30;13.4;72.2
79187;SHT31;68762;51.980;5.646;2024-03-22T14:09:59;13.4;72.7
79187;SHT31;68762;51.980;5.646;2024-03-22T14:12:27;13.4;73.1
79187;SHT31;68762;51.980;5.646;2024-03-22T14:14:58;13.4;72.4
79187;SHT31;68762;51.980;5.646;2024-03-22T14:17:26;13.4;72.4
79187;SHT31;68762;51.980;5.646;2024-03-22T14:19:55;13.4;72.4
79187;SHT31;68762;51.980;5.646;2024-03-22T14:22:23;13.4;72.9
79187;SHT31;68762;51.980;5.646;2024-03-22T14:24:52;13.4;73.2
79187;SHT31;68762;51.980;5.646;2024-03-22T14:27:20;13.4;73.2
79187;SHT31;68762;51.980;5.646;2024-03-22T14:29:49;13.4;72.0
79187;SHT31;68762;51.980;5.646;2024-03-22T14:32:18;13.4;72.4
79187;SHT31;68762;51.980;5.646;2024-03-22T14:34:47;13.4;71.9
79187;SHT31;68762;51.980;5.646;2024-03-22T14:37:15;13.4;72.5
79187;SHT31;68762;51.980;5.646;2024-03-22T14:39:44;13.4;71.6
79187;SHT31;68762;51.980;5.646;2024-03-22T14:42:12;13.4;71.0
79187;SHT31;68762;51.980;5.646;2024-03-22T14:44:41;13.4;70.8
79187;SHT31;68762;51.980;5.646;2024-03-22T14:47:10;13.4;71.2
79187;SHT31;68762;51.980;5.646;2024-03-22T14:49:38;13.4;71.2
79187;SHT31;68762;51.980;5.646;2024-03-22T14:52:08;13.4;70.7
79187;SHT31;68762;51.980;5.646;2024-03-22T14:54:39;13.4;70.7
79187;SHT31;68762;51.980;5.646;2024-03-22T14:57:07;13.4;70.2
79187;SHT31;68762;51.980;5.646;2024-03-22T14:59:37;13.4;71.2
79187;SHT31;68762;51.980;5.646;2024-03-22T15:02:06;13.4;71.6
79187;SHT31;68762;51.980;5.646;2024-03-22T15:04:35;13.4;71.5
79187;SHT31;68762;51.980;5.646;2024-03-22T15:07:04;13.4;71.7
79187;SHT31;68762;51.980;5.646;2024-03-22T15:09:33;13.3;71.7
79187;SHT31;68762;51.980;5.646;2024-03-22T15:12:02;13.3;71.5
79187;SHT31;68762;51.980;5.646;2024-03-22T15:14:31;13.3;71.6
79187;SHT31;68762;51.980;5.646;2024-03-22T15:17:00;13.3;72.2
79187;SHT31;68762;51.980;5.646;2024-03-22T15:19:29;13.3;72.1
79187;SHT31;68762;51.980;5.646;2024-03-22T15:21:58;13.3;72.1
79187;SHT31;68762;51.980;5.646;2024-03-22T15:24:27;13.3;71.9
79187;SHT31;68762;51.980;5.646;2024-03-22T15:26:55;13.3;71.8
79187;SHT31;68762;51.980;5.646;2024-03-22T15:29:24;13.3;72.4
79187;SHT31;68762;51.980;5.646;2024-03-22T15:31:52;13.3;73.0
79187;SHT31;68762;51.980;5.646;2024-03-22T15:34:21;13.3;72.8
79187;SHT31;68762;51.980;5.646;2024-03-22T15:36:50;13.3;72.4
79187;SHT31;68762;51.980;5.646;2024-03-22T15:39:19;13.3;72.3
79187;SHT31;68762;51.980;5.646;2024-03-22T15:41:47;13.3;72.7
79187;SHT31;68762;51.980;5.646;2024-03-22T15:44:16;13.3;72.7
79187;SHT31;68762;51.980;5.646;2024-03-22T15:46:45;13.3;72.7
79187;SHT31;68762;51.980;5.646;2024-03-22T15:49:13;13.3;72.1
79187;SHT31;68762;51.980;5.646;2024-03-22T15:51:43;13.3;72.3
79187;SHT31;68762;51.980;5.646;2024-03-22T15:54:11;13.3;72.3
79187;SHT31;68762;51.980;5.646;2024-03-22T15:56:42;13.3;72.3
79187;SHT31;68762;51.980;5.646;2024-03-22T15:59:10;13.2;72.6
79187;SHT31;68762;51.980;5.646;2024-03-22T16:01:39;13.2;72.7
79187;SHT31;68762;51.980;5.646;2024-03-22T16:04:07;13.2;72.6
79187;SHT31;68762;51.980;5.646;2024-03-22T16:06:36;13.2;72.7
79187;SHT31;68762;51.980;5.646;2024-03-22T16:09:05;13.2;73.3
79187;SHT31;68762;51.980;5.646;2024-03-22T16:11:36;13.2;73.4
79187;SHT31;68762;51.980;5.646;2024-03-22T16:14:05;13.2;73.1